#dbistima — V2PX5 — position and weather

sailwx.info

Track history (hours):
 
Tides and Currents Weather Stations Pressure Air Temp Water Temp Dewpoint Dewpoint Depression Visibility Wind Speed Wind Dir Waves Ship Positions

#dbistima

Last reported at 2015-Jan-24 07:25 UTC. Time now 2015-Jan-29 18:28 UTC.
Position N 43°42' W 005°42'.

MMSI: 304010972.

Date/timePositionNaut miles runAvg speedWind from/ knotsBaromVisibWave heightAir tempDewpointWater temp
2015-Jan-24 07:25N 43°42' W 005°42'910.0
2015-Jan-24 06:33N 43°41' W 005°30'1010.1
2015-Jan-24 05:33N 43°40' W 005°16'1010.0
2015-Jan-24 04:33N 43°39' W 005°02'  
2015-Jan-18 21:15N 43°20' W 003°02'305 8.5
2015-Jan-17 09:33N 48°05' W 005°38'275 6.1
2015-Jan-15 12:21N 50°35' E 000°16'5 5.7
2015-Jan-15 11:33N 50°36' E 000°23'6 6.0
2015-Jan-15 10:33N 50°38' E 000°32'6 6.0
2015-Jan-15 09:33N 50°41' E 000°40'6 5.6
2015-Jan-15 08:28N 50°44' E 000°48'21 2.4
2015-Jan-14 23:32N 51°01' E 001°10'3 2.8
2015-Jan-14 22:32N 51°02' E 001°14'3 2.7
2015-Jan-14 21:32N 51°03' E 001°18'3 2.8
2015-Jan-14 20:32N 51°04' E 001°22'3 2.6
2015-Jan-14 19:34N 51°05' E 001°25'3 2.6
2015-Jan-14 18:34N 51°06' E 001°29'3 2.9
2015-Jan-14 17:33N 51°07' E 001°33'3 3.2
2015-Jan-14 16:34N 51°09' E 001°37'4 3.6
2015-Jan-14 15:34N 51°12' E 001°42'4 4.0
2015-Jan-14 14:33N 51°15' E 001°46'5 4.6
2015-Jan-14 13:34N 51°19' E 001°50'5 4.7
2015-Jan-14 12:33N 51°22' E 001°54'4 4.4
2015-Jan-14 11:33N 51°26' E 001°59'4 4.2
2015-Jan-14 10:32N 51°29' E 002°03'4 4.4
2015-Jan-14 09:34N 51°33' E 002°07'5 4.7
2015-Jan-14 08:33N 51°37' E 002°11'5 5.1
2015-Jan-14 07:33N 51°40' E 002°17'  
Track history (hours):
 
Tides and Currents Weather Stations Pressure Air Temp Water Temp Dewpoint Dewpoint Depression Visibility Wind Speed Wind Dir Waves Ship Positions

#dbistima

Last reported at 2015-Jan-24 07:25 UTC. Time now 2015-Jan-29 18:28 UTC.
Position N 43°42' W 005°42'.

MMSI: 304010972.

Date/timePositionNaut miles runAvg speedWind from/ knotsBaromVisibWave heightAir tempDewpointWater temp
2015-Jan-24 07:25N 43°42' W 005°42'910.0
2015-Jan-24 06:33N 43°41' W 005°30'1010.1
2015-Jan-24 05:33N 43°40' W 005°16'1010.0
2015-Jan-24 04:33N 43°39' W 005°02'  
2015-Jan-18 21:15N 43°20' W 003°02'305 8.5
2015-Jan-17 09:33N 48°05' W 005°38'275 6.1
2015-Jan-15 12:21N 50°35' E 000°16'5 5.7
2015-Jan-15 11:33N 50°36' E 000°23'6 6.0
2015-Jan-15 10:33N 50°38' E 000°32'6 6.0
2015-Jan-15 09:33N 50°41' E 000°40'6 5.6
2015-Jan-15 08:28N 50°44' E 000°48'21 2.4
2015-Jan-14 23:32N 51°01' E 001°10'3 2.8
2015-Jan-14 22:32N 51°02' E 001°14'3 2.7
2015-Jan-14 21:32N 51°03' E 001°18'3 2.8
2015-Jan-14 20:32N 51°04' E 001°22'3 2.6
2015-Jan-14 19:34N 51°05' E 001°25'3 2.6
2015-Jan-14 18:34N 51°06' E 001°29'3 2.9
2015-Jan-14 17:33N 51°07' E 001°33'3 3.2
2015-Jan-14 16:34N 51°09' E 001°37'4 3.6
2015-Jan-14 15:34N 51°12' E 001°42'4 4.0
2015-Jan-14 14:33N 51°15' E 001°46'5 4.6
2015-Jan-14 13:34N 51°19' E 001°50'5 4.7
2015-Jan-14 12:33N 51°22' E 001°54'4 4.4
2015-Jan-14 11:33N 51°26' E 001°59'4 4.2
2015-Jan-14 10:32N 51°29' E 002°03'4 4.4
2015-Jan-14 09:34N 51°33' E 002°07'5 4.7
2015-Jan-14 08:33N 51°37' E 002°11'5 5.1
2015-Jan-14 07:33N 51°40' E 002°17'  

Dump ship's entire track history